createdAt,value
2022-08-03T00:01:30.526Z,26.40
2022-08-03T00:03:35.107Z,26.40
2022-08-03T00:05:40.193Z,26.50
2022-08-03T00:08:06.136Z,26.50
2022-08-03T00:10:11.352Z,26.50
2022-08-03T00:12:15.875Z,26.50
2022-08-03T00:14:20.307Z,26.60
2022-08-03T00:16:25.250Z,26.60
2022-08-03T00:18:29.499Z,26.60
2022-08-03T00:20:33.910Z,26.60
2022-08-03T00:22:38.127Z,26.50
2022-08-03T00:24:43.678Z,26.10
2022-08-03T00:26:47.938Z,25.80
2022-08-03T00:28:52.148Z,25.50
2022-08-03T00:30:56.910Z,25.10
2022-08-03T00:33:01.449Z,24.70
2022-08-03T00:35:08.386Z,24.50
2022-08-03T00:37:14.012Z,24.70
2022-08-03T00:39:18.229Z,24.90
2022-08-03T00:41:23.876Z,25.10
2022-08-03T00:43:28.422Z,25.40
2022-08-03T00:45:34.229Z,25.60
2022-08-03T00:47:38.445Z,25.70
2022-08-03T00:49:43.283Z,25.60
2022-08-03T00:51:48.150Z,25.80
2022-08-03T00:53:52.844Z,25.90
2022-08-03T00:55:58.938Z,26.00
2022-08-03T00:58:06.729Z,26.20
2022-08-03T01:00:13.349Z,26.30
2022-08-03T01:02:17.680Z,26.40
2022-08-03T01:04:22.053Z,26.40
2022-08-03T01:06:35.037Z,26.50
2022-08-03T01:08:47.789Z,26.50
2022-08-03T01:11:04.276Z,26.60
2022-08-03T01:14:03.650Z,26.50
2022-08-03T01:15:53.640Z,26.50
2022-08-03T01:18:00.765Z,26.50
2022-08-03T01:20:09.676Z,26.50
2022-08-03T01:22:33.234Z,26.30
2022-08-03T01:25:18.840Z,25.90
2022-08-03T01:27:27.248Z,25.50
2022-08-03T01:30:03.560Z,25.40
2022-08-03T01:32:59.469Z,25.30
2022-08-03T01:34:43.858Z,25.50
2022-08-03T01:36:54.944Z,25.70
2022-08-03T01:39:02.436Z,25.80
2022-08-03T01:41:10.011Z,25.90
2022-08-03T01:44:26.486Z,26.10
2022-08-03T01:45:47.311Z,26.20
2022-08-03T01:47:53.066Z,26.30
2022-08-03T01:49:59.279Z,26.40
2022-08-03T01:52:05.551Z,26.30
2022-08-03T01:54:12.438Z,26.40
2022-08-03T01:56:19.456Z,26.10
2022-08-03T01:58:25.860Z,25.90
2022-08-03T02:00:31.066Z,25.60
2022-08-03T02:02:38.563Z,25.30
2022-08-03T02:04:44.933Z,25.00
2022-08-03T02:07:01.651Z,25.10
2022-08-03T02:09:07.907Z,25.20
2022-08-03T02:11:13.760Z,25.40
2022-08-03T02:13:20.669Z,25.60
2022-08-03T02:15:26.073Z,25.70
2022-08-03T02:17:38.938Z,25.90
2022-08-03T02:19:46.705Z,26.00
2022-08-03T02:21:56.602Z,26.00
2022-08-03T02:24:06.795Z,26.00
2022-08-03T02:26:15.867Z,26.10
2022-08-03T02:28:22.167Z,26.20
2022-08-03T02:30:37.078Z,26.20
2022-08-03T02:32:43.861Z,26.20
2022-08-03T02:34:52.797Z,26.30
2022-08-03T02:37:01.434Z,26.20
2022-08-03T02:39:06.180Z,26.20
2022-08-03T02:41:16.047Z,26.20
2022-08-03T02:43:21.785Z,26.30
2022-08-03T02:45:28.226Z,26.20
2022-08-03T02:47:53.144Z,26.30
2022-08-03T02:50:02.949Z,26.30
2022-08-03T02:52:13.246Z,26.30
2022-08-03T02:54:21.184Z,26.30
2022-08-03T02:56:26.861Z,26.30
2022-08-03T02:58:32.523Z,26.30
2022-08-03T03:00:37.939Z,26.30
2022-08-03T03:02:44.490Z,26.30
2022-08-03T03:05:52.106Z,26.30
2022-08-03T03:07:19.817Z,26.30
2022-08-03T03:09:24.917Z,26.30
2022-08-03T03:11:45.420Z,26.30
2022-08-03T03:13:50.991Z,26.30
2022-08-03T03:15:56.154Z,26.30
2022-08-03T03:18:02.375Z,26.30
2022-08-03T03:20:08.952Z,26.50
2022-08-03T03:22:15.363Z,26.60
2022-08-03T03:24:21.969Z,26.80
2022-08-03T03:26:26.355Z,27.10
2022-08-03T03:28:31.768Z,27.40
2022-08-03T03:30:36.152Z,27.60
2022-08-03T03:32:41.143Z,27.80
2022-08-03T03:34:46.059Z,27.80
2022-08-03T03:36:51.735Z,27.90
2022-08-03T03:38:58.252Z,28.00
2022-08-03T03:41:04.474Z,28.10
2022-08-03T03:43:10.107Z,28.20
2022-08-03T03:45:14.813Z,28.20
2022-08-03T03:47:32.427Z,28.20
2022-08-03T03:49:38.087Z,28.30
2022-08-03T03:51:42.272Z,28.40
2022-08-03T03:53:59.913Z,28.40
2022-08-03T03:56:05.888Z,28.30
2022-08-03T03:58:10.374Z,28.20
2022-08-03T04:00:16.355Z,28.10
2022-08-03T04:02:20.545Z,28.00
2022-08-03T04:04:41.949Z,28.20
2022-08-03T04:07:03.577Z,28.40
2022-08-03T04:09:27.597Z,28.40
2022-08-03T04:11:39.752Z,28.50
2022-08-03T04:13:48.655Z,28.50
2022-08-03T04:15:54.161Z,28.40
2022-08-03T04:18:00.242Z,28.30
2022-08-03T04:20:05.813Z,28.40
2022-08-03T04:22:13.568Z,28.50
2022-08-03T04:24:19.058Z,28.30
2022-08-03T04:26:26.852Z,28.20
2022-08-03T04:28:33.652Z,28.30
2022-08-03T04:30:39.985Z,28.50
2022-08-03T04:32:50.926Z,28.70
2022-08-03T04:34:56.142Z,28.90
2022-08-03T04:37:03.043Z,28.80
2022-08-03T04:39:10.326Z,28.60
2022-08-03T04:41:15.341Z,28.70
2022-08-03T04:43:20.661Z,28.90
2022-08-03T04:45:27.166Z,29.30
2022-08-03T04:47:33.670Z,29.50
2022-08-03T04:49:38.984Z,29.40
2022-08-03T04:51:43.684Z,29.30
2022-08-03T04:53:48.006Z,29.50
2022-08-03T04:55:52.240Z,29.70
2022-08-03T04:57:56.437Z,30.10
2022-08-03T05:00:03.333Z,30.30
2022-08-03T05:02:12.165Z,30.60
2022-08-03T05:04:16.485Z,30.50
2022-08-03T05:06:20.699Z,30.50
2022-08-03T05:08:29.485Z,30.60
2022-08-03T05:10:33.679Z,30.40
2022-08-03T05:12:37.995Z,30.30
2022-08-03T05:14:42.158Z,30.10
2022-08-03T05:16:46.359Z,30.40
2022-08-03T05:18:51.883Z,30.10
2022-08-03T05:20:56.133Z,29.60
2022-08-03T05:23:01.616Z,29.60
2022-08-03T05:25:06.649Z,29.70
2022-08-03T05:27:17.458Z,29.30
2022-08-03T05:29:21.923Z,28.90
2022-08-03T05:31:26.074Z,28.60
2022-08-03T05:33:30.305Z,28.50
2022-08-03T05:35:57.883Z,28.50
2022-08-03T05:38:00.422Z,28.60
2022-08-03T05:40:05.341Z,29.20
2022-08-03T05:42:10.682Z,29.40
2022-08-03T05:44:15.018Z,29.20
2022-08-03T05:46:19.364Z,29.30
2022-08-03T05:48:23.486Z,29.90
2022-08-03T05:50:27.660Z,29.70
2022-08-03T05:52:33.297Z,30.30
2022-08-03T05:54:55.619Z,30.80
2022-08-03T05:57:01.294Z,31.00
2022-08-03T05:59:22.700Z,31.20
2022-08-03T06:01:31.804Z,30.90
2022-08-03T06:03:36.093Z,30.90
2022-08-03T06:05:43.436Z,31.00
2022-08-03T06:08:01.220Z,30.60
2022-08-03T06:10:36.610Z,30.50
2022-08-03T06:12:31.227Z,30.60
2022-08-03T06:14:35.432Z,29.80
2022-08-03T06:16:39.649Z,29.30
2022-08-03T06:18:44.035Z,28.90
2022-08-03T06:20:49.569Z,28.70
2022-08-03T06:23:00.386Z,28.50
2022-08-03T06:25:10.248Z,28.50
2022-08-03T06:27:17.410Z,28.90
2022-08-03T06:29:21.666Z,29.00
2022-08-03T06:31:33.174Z,29.20
2022-08-03T06:34:31.218Z,29.10
2022-08-03T06:36:02.466Z,28.80
2022-08-03T06:38:06.824Z,28.80
2022-08-03T06:40:14.144Z,28.80
2022-08-03T06:42:18.590Z,28.60
2022-08-03T06:44:25.008Z,28.40
2022-08-03T06:46:29.257Z,28.20
2022-08-03T06:48:33.620Z,28.20
2022-08-03T06:50:39.654Z,28.30
2022-08-03T06:52:43.827Z,28.50
2022-08-03T06:54:48.159Z,28.70
2022-08-03T06:56:53.751Z,29.00
2022-08-03T06:58:57.987Z,29.20
2022-08-03T07:01:02.492Z,29.40
2022-08-03T07:03:06.782Z,29.80
2022-08-03T07:05:17.083Z,30.40
2022-08-03T07:07:21.577Z,31.00
2022-08-03T07:09:26.901Z,31.50
2022-08-03T07:11:31.077Z,31.70
2022-08-03T07:13:36.662Z,31.30
2022-08-03T07:15:55.684Z,31.30
2022-08-03T07:18:00.370Z,31.30
2022-08-03T07:20:07.799Z,31.30
2022-08-03T07:22:11.996Z,31.00
2022-08-03T07:24:16.308Z,31.00
2022-08-03T07:26:20.709Z,31.00
2022-08-03T07:28:25.026Z,31.30
2022-08-03T07:30:30.788Z,31.10
2022-08-03T07:32:35.601Z,31.20
2022-08-03T07:34:58.466Z,30.90
2022-08-03T07:37:04.641Z,31.10
2022-08-03T07:39:15.354Z,30.80
2022-08-03T07:41:22.355Z,30.70
2022-08-03T07:43:26.527Z,30.70
2022-08-03T07:45:33.302Z,30.70
2022-08-03T07:47:37.605Z,30.20
2022-08-03T07:49:42.519Z,29.90
2022-08-03T07:52:06.766Z,30.10
2022-08-03T07:54:11.335Z,30.40
2022-08-03T07:56:17.024Z,30.80
2022-08-03T07:58:24.350Z,31.30
2022-08-03T08:00:28.866Z,31.80
2022-08-03T08:02:34.464Z,31.60
2022-08-03T08:04:38.714Z,31.90
2022-08-03T08:06:42.875Z,32.00
2022-08-03T08:08:48.111Z,32.40
2022-08-03T08:10:58.299Z,32.20
2022-08-03T08:13:03.121Z,32.00
2022-08-03T08:15:09.796Z,31.30
2022-08-03T08:17:14.013Z,31.20
2022-08-03T08:19:19.666Z,31.10
2022-08-03T08:21:26.277Z,31.10
2022-08-03T08:23:56.934Z,31.40
2022-08-03T08:26:02.099Z,31.80
2022-08-03T08:28:29.459Z,32.00
2022-08-03T08:30:34.421Z,32.40
2022-08-03T08:32:39.565Z,32.10
2022-08-03T08:34:45.310Z,32.30
2022-08-03T08:36:49.567Z,32.20
2022-08-03T08:38:53.864Z,32.20
2022-08-03T08:40:58.574Z,32.60
2022-08-03T08:43:04.228Z,33.10
2022-08-03T08:45:09.825Z,33.50
2022-08-03T08:47:15.425Z,33.10
2022-08-03T08:49:29.051Z,32.30
2022-08-03T08:51:50.999Z,32.00
2022-08-03T08:54:04.347Z,32.10
2022-08-03T08:56:13.041Z,32.00
2022-08-03T08:58:20.974Z,32.70
2022-08-03T09:00:25.519Z,32.90
2022-08-03T09:02:32.091Z,33.20
2022-08-03T09:04:36.440Z,33.30
2022-08-03T09:06:53.706Z,33.20
2022-08-03T09:09:08.335Z,32.40
2022-08-03T09:11:12.876Z,31.90
2022-08-03T09:13:17.487Z,31.90
2022-08-03T09:15:24.545Z,31.70
2022-08-03T09:17:41.679Z,31.90
2022-08-03T09:20:04.504Z,31.70
2022-08-03T09:22:13.248Z,31.40
2022-08-03T09:24:40.617Z,31.60
2022-08-03T09:26:54.097Z,32.00
2022-08-03T09:29:05.677Z,32.10
2022-08-03T09:31:13.879Z,32.30
2022-08-03T09:33:18.047Z,32.50
2022-08-03T09:35:51.767Z,32.10
2022-08-03T09:38:12.869Z,32.30
2022-08-03T09:40:36.529Z,32.80
2022-08-03T09:42:57.968Z,33.10
2022-08-03T09:45:02.413Z,33.30
2022-08-03T09:47:08.256Z,33.30
2022-08-03T09:49:13.860Z,33.10
2022-08-03T09:52:30.277Z,32.90
2022-08-03T09:53:57.001Z,32.60
2022-08-03T09:56:33.753Z,32.30
2022-08-03T09:58:31.047Z,31.80
2022-08-03T10:00:55.322Z,31.80
2022-08-03T10:03:06.384Z,31.80
2022-08-03T10:05:19.611Z,31.90
2022-08-03T10:07:25.895Z,32.50
2022-08-03T10:09:31.614Z,32.80
2022-08-03T10:11:40.826Z,33.10
2022-08-03T10:13:45.943Z,33.40
2022-08-03T10:16:22.504Z,33.40
2022-08-03T10:18:15.200Z,33.50
2022-08-03T10:20:19.702Z,33.50
2022-08-03T10:22:25.702Z,33.60
2022-08-03T10:24:35.422Z,33.50
2022-08-03T10:26:50.008Z,33.60
2022-08-03T10:28:57.154Z,33.70
2022-08-03T10:31:01.662Z,33.70
2022-08-03T10:33:50.099Z,33.30
2022-08-03T10:35:38.803Z,32.90
2022-08-03T10:37:56.735Z,33.30
2022-08-03T10:40:05.008Z,33.70
2022-08-03T10:42:14.580Z,33.80
2022-08-03T10:44:21.396Z,33.50
2022-08-03T10:46:27.196Z,33.30
2022-08-03T10:48:32.574Z,33.60
2022-08-03T10:50:37.108Z,33.70
2022-08-03T10:52:56.543Z,33.70
2022-08-03T10:55:20.683Z,33.50
2022-08-03T10:57:46.437Z,33.50
2022-08-03T11:00:00.670Z,33.30
2022-08-03T11:02:08.361Z,33.60
2022-08-03T11:04:20.827Z,34.00
2022-08-03T11:06:26.331Z,34.20
2022-08-03T11:08:32.423Z,34.30
2022-08-03T11:10:38.131Z,34.30
2022-08-03T11:12:44.211Z,34.70
2022-08-03T11:14:49.533Z,34.50
2022-08-03T11:17:14.449Z,34.60
2022-08-03T11:19:22.672Z,34.20
2022-08-03T11:21:57.132Z,33.90
2022-08-03T11:24:02.704Z,33.50
2022-08-03T11:26:15.856Z,33.60
2022-08-03T11:28:27.799Z,33.80
2022-08-03T11:30:32.508Z,33.60
2022-08-03T11:32:59.180Z,33.50
2022-08-03T11:35:10.933Z,33.00
2022-08-03T11:37:31.397Z,33.20
2022-08-03T11:39:40.606Z,33.60
2022-08-03T11:41:46.189Z,33.80
2022-08-03T11:43:50.523Z,34.00
2022-08-03T11:45:59.851Z,33.90
2022-08-03T11:48:17.525Z,33.60
2022-08-03T11:50:22.628Z,34.00
2022-08-03T11:52:28.999Z,34.30
2022-08-03T11:54:33.450Z,34.60
2022-08-03T11:56:49.538Z,34.70
2022-08-03T11:59:15.144Z,34.70
2022-08-03T12:01:23.096Z,34.70
2022-08-03T12:03:34.671Z,34.50
2022-08-03T12:05:42.235Z,34.70
2022-08-03T12:08:03.862Z,35.00
2022-08-03T12:10:11.593Z,34.90
2022-08-03T12:12:19.372Z,34.20
2022-08-03T12:14:48.637Z,34.30
2022-08-03T12:16:49.568Z,34.30
2022-08-03T12:18:57.621Z,34.20
2022-08-03T12:21:08.025Z,34.40
2022-08-03T12:23:14.311Z,34.10
2022-08-03T12:25:26.987Z,34.30
2022-08-03T12:27:45.509Z,34.50
2022-08-03T12:29:58.649Z,34.50
2022-08-03T12:32:03.715Z,34.50
2022-08-03T12:34:09.265Z,34.70
2022-08-03T12:36:13.477Z,34.70
2022-08-03T12:38:23.013Z,34.50
2022-08-03T12:40:28.456Z,34.60
2022-08-03T12:42:35.007Z,34.70
2022-08-03T12:44:41.478Z,34.90
2022-08-03T12:46:48.114Z,35.10
2022-08-03T12:49:07.052Z,35.00
2022-08-03T12:51:12.323Z,34.30
2022-08-03T12:53:31.269Z,34.40
2022-08-03T12:55:56.415Z,34.70
2022-08-03T12:58:02.314Z,34.50
2022-08-03T13:00:21.466Z,34.60
2022-08-03T13:02:33.790Z,34.80
2022-08-03T13:04:38.689Z,34.60
2022-08-03T13:06:42.915Z,34.40
2022-08-03T13:08:48.428Z,34.70
2022-08-03T13:10:53.265Z,34.60
2022-08-03T13:13:00.280Z,34.50
2022-08-03T13:15:04.664Z,34.60
2022-08-03T13:17:10.667Z,34.70
2022-08-03T13:19:15.399Z,34.90
2022-08-03T13:21:21.112Z,34.70
2022-08-03T13:23:25.400Z,34.60
2022-08-03T13:25:29.833Z,34.50
2022-08-03T13:28:03.828Z,34.50
2022-08-03T13:29:58.983Z,34.40
2022-08-03T13:32:03.376Z,33.90
2022-08-03T13:34:09.520Z,34.10
2022-08-03T13:36:13.781Z,34.00
2022-08-03T13:38:18.167Z,34.10
2022-08-03T13:40:30.135Z,34.20
2022-08-03T13:42:36.897Z,34.20
2022-08-03T13:44:41.457Z,34.20
2022-08-03T13:46:45.743Z,34.20
2022-08-03T13:48:49.993Z,34.30
2022-08-03T13:50:55.642Z,34.40
2022-08-03T13:53:00.089Z,34.60
2022-08-03T13:55:06.656Z,34.70
2022-08-03T13:58:02.299Z,34.70
2022-08-03T13:59:36.033Z,34.80
2022-08-03T14:01:55.042Z,34.50
2022-08-03T14:03:59.992Z,34.20
2022-08-03T14:06:05.804Z,34.00
2022-08-03T14:08:10.041Z,34.00
2022-08-03T14:10:15.086Z,33.90
2022-08-03T14:12:19.322Z,34.00
2022-08-03T14:14:23.640Z,34.20
2022-08-03T14:16:30.539Z,34.20
2022-08-03T14:18:37.491Z,34.00
2022-08-03T14:20:50.136Z,33.80
2022-08-03T14:23:00.342Z,33.80
2022-08-03T14:25:04.760Z,33.90
2022-08-03T14:27:15.172Z,34.00
2022-08-03T14:29:19.453Z,33.90
2022-08-03T14:32:10.876Z,33.90
2022-08-03T14:33:48.967Z,34.00
2022-08-03T14:35:54.096Z,34.20
2022-08-03T14:37:59.737Z,34.40
2022-08-03T14:40:04.165Z,34.40
2022-08-03T14:42:08.797Z,33.90
2022-08-03T14:44:13.020Z,34.00
2022-08-03T14:46:17.420Z,34.10
2022-08-03T14:50:34.712Z,34.00
2022-08-03T14:50:51.067Z,33.80
2022-08-03T14:52:56.117Z,34.00
2022-08-03T14:55:02.196Z,33.90
2022-08-03T14:57:08.179Z,33.70
2022-08-03T14:59:12.471Z,33.90
2022-08-03T15:02:04.849Z,34.00
2022-08-03T15:03:41.248Z,33.90
2022-08-03T15:05:47.251Z,33.60
2022-08-03T15:07:51.636Z,33.40
2022-08-03T15:09:55.877Z,33.20
2022-08-03T15:12:01.878Z,33.20
2022-08-03T15:14:09.131Z,33.10
2022-08-03T15:16:13.883Z,33.00
2022-08-03T15:18:18.345Z,32.80
2022-08-03T15:20:39.342Z,32.80
2022-08-03T15:22:46.930Z,32.80
2022-08-03T15:24:51.385Z,32.80
2022-08-03T15:26:55.594Z,32.70
2022-08-03T15:29:01.314Z,32.50
2022-08-03T15:31:05.707Z,32.30
2022-08-03T15:33:09.963Z,32.30
2022-08-03T15:35:14.255Z,32.20
2022-08-03T15:37:18.472Z,32.20
2022-08-03T15:39:22.701Z,32.20
2022-08-03T15:41:27.500Z,32.30
2022-08-03T15:43:31.648Z,32.40
2022-08-03T15:45:37.667Z,32.60
2022-08-03T15:47:41.856Z,32.40
2022-08-03T15:49:46.061Z,32.50
2022-08-03T15:51:50.255Z,32.40
2022-08-03T15:53:54.522Z,32.40
2022-08-03T15:55:58.793Z,32.40
2022-08-03T15:59:09.842Z,32.30
2022-08-03T16:00:33.508Z,32.30
2022-08-03T16:02:40.178Z,32.20
2022-08-03T16:04:44.394Z,32.20
2022-08-03T16:06:48.669Z,32.30
2022-08-03T16:08:52.915Z,32.30
2022-08-03T16:10:57.128Z,32.20
2022-08-03T16:13:03.572Z,32.10
2022-08-03T16:15:09.222Z,32.20
2022-08-03T16:17:13.444Z,32.30
2022-08-03T16:19:19.139Z,32.20
2022-08-03T16:21:23.399Z,32.30
2022-08-03T16:23:31.623Z,32.40
2022-08-03T16:25:38.386Z,32.30
2022-08-03T16:28:03.162Z,32.20
2022-08-03T16:30:09.692Z,32.20
2022-08-03T16:32:14.053Z,32.10
2022-08-03T16:34:19.903Z,32.00
2022-08-03T16:36:24.220Z,32.00
2022-08-03T16:38:28.537Z,32.10
2022-08-03T16:40:33.690Z,32.00
2022-08-03T16:42:38.555Z,32.00
2022-08-03T16:44:43.111Z,32.00
2022-08-03T16:46:47.669Z,32.00
2022-08-03T16:48:51.964Z,32.10
2022-08-03T16:50:57.615Z,32.10
2022-08-03T16:53:03.687Z,32.10
2022-08-03T16:55:09.902Z,31.90
2022-08-03T16:57:15.206Z,31.80
2022-08-03T16:59:19.619Z,31.70
2022-08-03T17:01:41.588Z,31.40
2022-08-03T17:04:01.646Z,30.90
2022-08-03T17:06:09.859Z,30.50
2022-08-03T17:08:14.297Z,30.40
2022-08-03T17:10:21.966Z,30.20
2022-08-03T17:12:31.418Z,30.10
2022-08-03T17:14:35.709Z,30.00
2022-08-03T17:16:52.215Z,29.90
2022-08-03T17:18:58.600Z,29.80
2022-08-03T17:21:11.523Z,29.80
2022-08-03T17:23:34.589Z,29.70
2022-08-03T17:26:01.751Z,29.50
2022-08-03T17:28:49.290Z,29.40
2022-08-03T17:30:45.499Z,29.40
2022-08-03T17:32:57.017Z,29.40
2022-08-03T17:35:02.587Z,29.30
2022-08-03T17:37:27.200Z,29.20
2022-08-03T17:42:05.464Z,29.10
2022-08-03T17:44:39.927Z,29.20
2022-08-03T17:46:51.505Z,29.00
2022-08-03T17:48:58.973Z,28.90
2022-08-03T17:51:08.327Z,28.90
2022-08-03T17:53:25.330Z,28.80
2022-08-03T17:55:55.632Z,28.80
2022-08-03T17:58:03.331Z,28.70
2022-08-03T18:00:23.279Z,28.70
2022-08-03T18:02:55.049Z,28.60
2022-08-03T18:05:16.305Z,28.50
2022-08-03T18:07:24.328Z,28.50
2022-08-03T18:10:06.730Z,28.50
2022-08-03T18:12:19.873Z,28.40
2022-08-03T18:14:33.487Z,28.40
2022-08-03T18:16:46.746Z,28.40
2022-08-03T18:18:55.240Z,28.20
2022-08-03T18:21:06.420Z,28.00
2022-08-03T18:23:24.970Z,28.10
2022-08-03T18:25:45.606Z,28.00
2022-08-03T18:27:55.470Z,27.90
2022-08-03T18:30:01.703Z,27.80
2022-08-03T18:32:16.732Z,27.80
2022-08-03T18:34:32.463Z,27.80
2022-08-03T18:36:38.972Z,27.80
2022-08-03T18:38:44.023Z,27.80
2022-08-03T18:40:52.783Z,27.70
2022-08-03T18:42:57.182Z,27.80
2022-08-03T18:45:54.944Z,27.70
2022-08-03T18:47:51.651Z,27.80
2022-08-03T18:50:08.887Z,27.60
2022-08-03T18:52:18.345Z,27.40
2022-08-03T18:54:45.749Z,27.30
2022-08-03T18:56:55.676Z,27.30
2022-08-03T18:59:05.606Z,27.30
2022-08-03T19:01:59.622Z,27.20
2022-08-03T19:03:48.348Z,27.20
2022-08-03T19:06:02.624Z,27.20
2022-08-03T19:08:18.336Z,27.20
2022-08-03T19:10:27.856Z,27.20
2022-08-03T19:12:39.582Z,27.10
2022-08-03T19:14:47.863Z,27.10
2022-08-03T19:16:57.777Z,27.10
2022-08-03T19:19:02.687Z,27.10
2022-08-03T19:21:15.445Z,27.00
2022-08-03T19:23:24.389Z,27.00
2022-08-03T19:25:35.078Z,27.10
2022-08-03T19:28:11.349Z,27.20
2022-08-03T19:30:32.255Z,27.20
2022-08-03T19:32:37.017Z,27.20
2022-08-03T19:34:42.083Z,27.10
2022-08-03T19:36:50.893Z,27.00
2022-08-03T19:38:56.762Z,26.90
2022-08-03T19:41:07.454Z,26.80
2022-08-03T19:43:21.910Z,26.80
2022-08-03T19:46:06.189Z,26.60
2022-08-03T19:48:09.878Z,26.60
2022-08-03T19:50:14.676Z,26.40
2022-08-03T19:52:24.371Z,26.40
2022-08-03T19:57:04.811Z,26.30
2022-08-03T20:04:02.503Z,26.20
2022-08-03T20:06:07.329Z,26.10
2022-08-03T20:08:11.802Z,26.10
2022-08-03T20:10:16.775Z,26.00
2022-08-03T20:12:28.254Z,26.00
2022-08-03T20:14:34.847Z,26.00
2022-08-03T20:16:39.112Z,26.00
2022-08-03T20:18:43.419Z,26.10
2022-08-03T20:20:51.655Z,26.10
2022-08-03T20:22:58.393Z,26.10
2022-08-03T20:25:09.265Z,26.10
2022-08-03T20:27:18.674Z,26.00
2022-08-03T20:29:42.595Z,26.00
2022-08-03T20:31:56.504Z,26.10
2022-08-03T20:34:01.699Z,26.00
2022-08-03T20:36:07.028Z,26.00
2022-08-03T20:38:14.836Z,25.90
2022-08-03T20:40:20.348Z,25.90
2022-08-03T20:42:24.856Z,25.90
2022-08-03T20:44:29.503Z,25.90
2022-08-03T20:49:00.070Z,25.90
2022-08-03T20:51:19.339Z,25.90
2022-08-03T20:53:57.374Z,25.90
2022-08-03T20:56:02.449Z,26.00
2022-08-03T20:58:07.892Z,26.00
2022-08-03T21:00:13.765Z,25.90
2022-08-03T21:02:19.613Z,25.80
2022-08-03T21:04:34.306Z,25.90
2022-08-03T21:06:45.761Z,25.90
2022-08-03T21:09:05.315Z,25.80
2022-08-03T21:11:17.415Z,25.90
2022-08-03T21:13:09.042Z,26.20
2022-08-03T21:13:09.324Z,26.30
2022-08-03T21:13:12.958Z,25.80
2022-08-03T21:13:25.810Z,25.90
2022-08-03T21:16:06.614Z,25.80
2022-08-03T21:17:57.655Z,25.60
2022-08-03T21:20:09.324Z,25.50
2022-08-03T21:22:15.753Z,25.30
2022-08-03T21:24:24.686Z,25.20
2022-08-03T21:26:33.278Z,25.20
2022-08-03T21:28:39.225Z,25.20
2022-08-03T21:30:43.721Z,25.20
2022-08-03T21:32:49.389Z,25.10
2022-08-03T21:34:53.974Z,25.20
2022-08-03T21:36:59.738Z,25.20
2022-08-03T21:39:06.456Z,25.10
2022-08-03T21:41:11.992Z,25.20
2022-08-03T21:43:16.332Z,25.20
2022-08-03T21:45:20.518Z,25.00
2022-08-03T21:47:25.630Z,24.90
2022-08-03T21:50:02.694Z,25.00
2022-08-03T21:52:04.314Z,25.00
2022-08-03T21:54:08.711Z,25.10
2022-08-03T21:56:14.459Z,25.10
2022-08-03T21:58:21.412Z,25.10
2022-08-03T22:00:25.714Z,25.00
2022-08-03T22:02:32.344Z,25.10
2022-08-03T22:04:55.378Z,25.10
2022-08-03T22:07:02.557Z,25.00
2022-08-03T22:09:08.664Z,25.00
2022-08-03T22:11:13.222Z,24.80
2022-08-03T22:13:43.970Z,24.80
2022-08-03T22:15:44.248Z,24.70
2022-08-03T22:17:54.957Z,24.80
2022-08-03T22:20:01.589Z,24.60
2022-08-03T22:22:13.944Z,24.50
2022-08-03T22:24:23.961Z,24.50
2022-08-03T22:26:35.248Z,24.40
2022-08-03T22:28:40.355Z,24.40
2022-08-03T22:30:44.830Z,24.30
2022-08-03T22:32:53.074Z,24.20
2022-08-03T22:34:58.251Z,24.20
2022-08-03T22:37:05.803Z,24.20
2022-08-03T22:39:12.760Z,24.10
2022-08-03T22:41:30.827Z,24.20
2022-08-03T22:43:37.041Z,24.20
2022-08-03T22:46:09.220Z,24.20
2022-08-03T22:48:09.864Z,24.20
2022-08-03T22:50:32.344Z,24.10
2022-08-03T22:52:39.579Z,24.00
2022-08-03T22:54:46.134Z,23.90
2022-08-03T22:56:51.806Z,23.90
2022-08-03T22:58:56.070Z,24.00
2022-08-03T23:01:04.949Z,24.00
2022-08-03T23:03:09.971Z,23.90
2022-08-03T23:06:00.304Z,23.80
2022-08-03T23:07:42.715Z,23.90
2022-08-03T23:09:50.092Z,24.00
2022-08-03T23:11:57.198Z,24.10
2022-08-03T23:14:07.558Z,24.00
2022-08-03T23:16:12.645Z,23.90
2022-08-03T23:18:17.068Z,23.90
2022-08-03T23:20:22.238Z,23.80
2022-08-03T23:22:31.277Z,23.90
2022-08-03T23:24:37.057Z,24.10
2022-08-03T23:26:43.939Z,24.00
2022-08-03T23:28:49.460Z,24.00
2022-08-03T23:30:55.166Z,24.00
2022-08-03T23:33:04.073Z,23.90
2022-08-03T23:36:20.090Z,24.00
2022-08-03T23:38:03.947Z,24.00
2022-08-03T23:40:17.259Z,24.10
2022-08-03T23:42:23.163Z,24.10
2022-08-03T23:44:30.934Z,24.00
2022-08-03T23:46:37.148Z,24.10
2022-08-03T23:48:41.416Z,24.10
2022-08-03T23:50:50.187Z,24.20
2022-08-03T23:53:00.893Z,24.30
2022-08-03T23:55:17.408Z,24.20
2022-08-03T23:57:33.991Z,24.10
2022-08-03T23:59:48.689Z,24.20
